sensor_id;sensor_type;location;lat;lon;timestamp;temperature;humidity
5027;DHT22;2532;52.480;13.354;2023-08-01T04:02:42;19.30;99.90
5027;DHT22;2532;52.480;13.354;2023-08-01T04:05:09;19.30;99.90
5027;DHT22;2532;52.480;13.354;2023-08-01T04:07:37;19.30;99.90
5027;DHT22;2532;52.480;13.354;2023-08-01T04:10:05;19.30;99.90
5027;DHT22;2532;52.480;13.354;2023-08-01T04:12:32;19.30;99.90
5027;DHT22;2532;52.480;13.354;2023-08-01T04:17:28;19.30;99.90
5027;DHT22;2532;52.480;13.354;2023-08-01T04:19:56;19.30;99.90
5027;DHT22;2532;52.480;13.354;2023-08-01T04:22:23;19.40;99.90
5027;DHT22;2532;52.480;13.354;2023-08-01T04:24:50;19.40;99.90
5027;DHT22;2532;52.480;13.354;2023-08-01T04:27:17;19.40;99.90
5027;DHT22;2532;52.480;13.354;2023-08-01T04:29:44;19.40;99.90
5027;DHT22;2532;52.480;13.354;2023-08-01T04:32:11;19.40;99.90
5027;DHT22;2532;52.480;13.354;2023-08-01T04:34:39;19.40;99.90
5027;DHT22;2532;52.480;13.354;2023-08-01T04:37:08;19.40;99.90
5027;DHT22;2532;52.480;13.354;2023-08-01T04:39:36;19.50;99.90
5027;DHT22;2532;52.480;13.354;2023-08-01T04:42:03;19.50;99.90
5027;DHT22;2532;52.480;13.354;2023-08-01T04:44:30;19.50;99.90
5027;DHT22;2532;52.480;13.354;2023-08-01T04:46:57;19.50;99.90
5027;DHT22;2532;52.480;13.354;2023-08-01T04:49:24;19.50;99.90
5027;DHT22;2532;52.480;13.354;2023-08-01T04:51:51;19.60;99.90
5027;DHT22;2532;52.480;13.354;2023-08-01T04:54:19;19.60;99.90
5027;DHT22;2532;52.480;13.354;2023-08-01T04:56:46;19.50;99.90
5027;DHT22;2532;52.480;13.354;2023-08-01T04:59:13;19.50;99.90
5027;DHT22;2532;52.480;13.354;2023-08-01T05:01:40;19.50;99.90
5027;DHT22;2532;52.480;13.354;2023-08-01T05:04:07;19.50;99.90
5027;DHT22;2532;52.480;13.354;2023-08-01T05:06:34;19.50;99.90
5027;DHT22;2532;52.480;13.354;2023-08-01T05:09:00;19.50;99.90
5027;DHT22;2532;52.480;13.354;2023-08-01T05:11:29;19.50;99.90
5027;DHT22;2532;52.480;13.354;2023-08-01T05:13:56;19.50;99.90
5027;DHT22;2532;52.480;13.354;2023-08-01T05:16:23;19.50;99.90
5027;DHT22;2532;52.480;13.354;2023-08-01T05:18:49;19.50;99.90
5027;DHT22;2532;52.480;13.354;2023-08-01T05:21:16;19.50;99.90
5027;DHT22;2532;52.480;13.354;2023-08-01T05:23:43;19.50;99.90
5027;DHT22;2532;52.480;13.354;2023-08-01T05:26:10;19.50;99.90
5027;DHT22;2532;52.480;13.354;2023-08-01T05:28:38;19.60;99.90
5027;DHT22;2532;52.480;13.354;2023-08-01T05:31:05;19.60;99.90
5027;DHT22;2532;52.480;13.354;2023-08-01T05:33:32;19.50;99.90
5027;DHT22;2532;52.480;13.354;2023-08-01T05:35:59;19.60;99.90
5027;DHT22;2532;52.480;13.354;2023-08-01T05:38:26;19.60;99.90
5027;DHT22;2532;52.480;13.354;2023-08-01T05:40:53;19.60;99.90
5027;DHT22;2532;52.480;13.354;2023-08-01T05:43:20;19.70;99.90
5027;DHT22;2532;52.480;13.354;2023-08-01T05:45:48;19.70;99.90
5027;DHT22;2532;52.480;13.354;2023-08-01T05:48:16;19.70;99.90
5027;DHT22;2532;52.480;13.354;2023-08-01T05:50:43;19.70;99.90
5027;DHT22;2532;52.480;13.354;2023-08-01T05:53:13;19.70;99.90
5027;DHT22;2532;52.480;13.354;2023-08-01T05:55:39;19.70;99.90
5027;DHT22;2532;52.480;13.354;2023-08-01T05:58:06;19.70;99.90
5027;DHT22;2532;52.480;13.354;2023-08-01T06:00:34;19.80;99.90
5027;DHT22;2532;52.480;13.354;2023-08-01T06:03:02;19.80;99.90
5027;DHT22;2532;52.480;13.354;2023-08-01T06:05:29;19.80;99.90
5027;DHT22;2532;52.480;13.354;2023-08-01T06:07:56;19.80;99.90
5027;DHT22;2532;52.480;13.354;2023-08-01T06:10:23;19.80;99.90
5027;DHT22;2532;52.480;13.354;2023-08-01T06:12:50;19.80;99.90
5027;DHT22;2532;52.480;13.354;2023-08-01T06:15:17;19.90;99.90
5027;DHT22;2532;52.480;13.354;2023-08-01T06:17:44;19.90;99.90
5027;DHT22;2532;52.480;13.354;2023-08-01T06:20:13;20.00;99.90
5027;DHT22;2532;52.480;13.354;2023-08-01T06:22:40;20.00;99.90
5027;DHT22;2532;52.480;13.354;2023-08-01T06:25:08;20.00;99.90
5027;DHT22;2532;52.480;13.354;2023-08-01T06:27:35;20.00;99.90
5027;DHT22;2532;52.480;13.354;2023-08-01T06:30:02;20.00;99.90
5027;DHT22;2532;52.480;13.354;2023-08-01T06:32:29;20.10;99.90
5027;DHT22;2532;52.480;13.354;2023-08-01T06:34:56;20.00;99.90
5027;DHT22;2532;52.480;13.354;2023-08-01T06:37:24;20.00;99.90
5027;DHT22;2532;52.480;13.354;2023-08-01T06:39:52;20.10;99.90
5027;DHT22;2532;52.480;13.354;2023-08-01T06:42:19;20.10;99.90
5027;DHT22;2532;52.480;13.354;2023-08-01T06:44:46;20.10;99.90
5027;DHT22;2532;52.480;13.354;2023-08-01T06:47:13;20.10;99.90
5027;DHT22;2532;52.480;13.354;2023-08-01T06:49:40;20.20;99.90
5027;DHT22;2532;52.480;13.354;2023-08-01T06:52:07;20.10;99.90
5027;DHT22;2532;52.480;13.354;2023-08-01T06:54:35;20.10;99.90
5027;DHT22;2532;52.480;13.354;2023-08-01T06:57:02;20.10;99.90
5027;DHT22;2532;52.480;13.354;2023-08-01T06:59:30;20.10;99.90
5027;DHT22;2532;52.480;13.354;2023-08-01T07:01:56;20.10;99.90
5027;DHT22;2532;52.480;13.354;2023-08-01T07:04:23;20.10;99.90
5027;DHT22;2532;52.480;13.354;2023-08-01T07:06:50;20.10;99.90
5027;DHT22;2532;52.480;13.354;2023-08-01T07:09:17;20.10;99.90
5027;DHT22;2532;52.480;13.354;2023-08-01T07:11:45;20.20;99.90
5027;DHT22;2532;52.480;13.354;2023-08-01T07:14:12;20.20;99.90
5027;DHT22;2532;52.480;13.354;2023-08-01T07:16:39;20.30;99.90
5027;DHT22;2532;52.480;13.354;2023-08-01T07:19:06;20.30;99.90
5027;DHT22;2532;52.480;13.354;2023-08-01T07:21:34;20.30;99.90
5027;DHT22;2532;52.480;13.354;2023-08-01T07:24:01;20.40;99.90
5027;DHT22;2532;52.480;13.354;2023-08-01T07:26:28;20.40;99.90
5027;DHT22;2532;52.480;13.354;2023-08-01T07:28:56;20.40;99.90
5027;DHT22;2532;52.480;13.354;2023-08-01T07:31:23;20.50;99.90
5027;DHT22;2532;52.480;13.354;2023-08-01T07:33:50;20.50;99.90
5027;DHT22;2532;52.480;13.354;2023-08-01T07:36:17;20.60;99.90
5027;DHT22;2532;52.480;13.354;2023-08-01T07:38:44;20.70;99.90
5027;DHT22;2532;52.480;13.354;2023-08-01T07:41:11;20.80;99.90
5027;DHT22;2532;52.480;13.354;2023-08-01T07:43:38;20.80;99.90
5027;DHT22;2532;52.480;13.354;2023-08-01T07:46:06;20.90;99.90
5027;DHT22;2532;52.480;13.354;2023-08-01T07:48:34;21.00;99.90
5027;DHT22;2532;52.480;13.354;2023-08-01T07:51:01;21.10;99.90
5027;DHT22;2532;52.480;13.354;2023-08-01T07:53:28;21.10;99.90
5027;DHT22;2532;52.480;13.354;2023-08-01T07:55:56;21.20;99.90
5027;DHT22;2532;52.480;13.354;2023-08-01T07:58:23;21.30;99.90
5027;DHT22;2532;52.480;13.354;2023-08-01T08:00:50;21.30;99.90
5027;DHT22;2532;52.480;13.354;2023-08-01T08:03:18;21.30;99.90
5027;DHT22;2532;52.480;13.354;2023-08-01T08:05:47;21.30;99.90
5027;DHT22;2532;52.480;13.354;2023-08-01T08:08:14;21.30;99.90
5027;DHT22;2532;52.480;13.354;2023-08-01T08:10:41;21.30;99.90
5027;DHT22;2532;52.480;13.354;2023-08-01T08:13:08;21.40;99.90
5027;DHT22;2532;52.480;13.354;2023-08-01T08:15:35;21.40;99.90
5027;DHT22;2532;52.480;13.354;2023-08-01T08:18:02;21.50;99.90
5027;DHT22;2532;52.480;13.354;2023-08-01T08:20:33;21.50;99.90
5027;DHT22;2532;52.480;13.354;2023-08-01T08:23:00;21.70;99.90
5027;DHT22;2532;52.480;13.354;2023-08-01T08:25:27;21.80;99.90
5027;DHT22;2532;52.480;13.354;2023-08-01T08:27:54;21.90;99.90
5027;DHT22;2532;52.480;13.354;2023-08-01T08:30:20;21.90;99.90
5027;DHT22;2532;52.480;13.354;2023-08-01T08:32:47;22.00;99.90
5027;DHT22;2532;52.480;13.354;2023-08-01T08:35:14;22.10;99.90
5027;DHT22;2532;52.480;13.354;2023-08-01T08:37:42;22.10;99.90
5027;DHT22;2532;52.480;13.354;2023-08-01T08:40:11;22.20;99.90
5027;DHT22;2532;52.480;13.354;2023-08-01T08:42:39;22.30;99.90
5027;DHT22;2532;52.480;13.354;2023-08-01T08:45:14;22.40;99.90
5027;DHT22;2532;52.480;13.354;2023-08-01T08:47:45;22.50;99.90
5027;DHT22;2532;52.480;13.354;2023-08-01T08:50:14;22.40;99.90
5027;DHT22;2532;52.480;13.354;2023-08-01T08:52:43;22.50;99.90
5027;DHT22;2532;52.480;13.354;2023-08-01T08:55:11;22.50;99.90
5027;DHT22;2532;52.480;13.354;2023-08-01T08:57:38;22.50;99.90
5027;DHT22;2532;52.480;13.354;2023-08-01T09:00:06;22.50;99.90
5027;DHT22;2532;52.480;13.354;2023-08-01T09:02:34;22.60;99.90
5027;DHT22;2532;52.480;13.354;2023-08-01T09:05:00;22.60;99.90
5027;DHT22;2532;52.480;13.354;2023-08-01T09:07:29;22.70;99.90
5027;DHT22;2532;52.480;13.354;2023-08-01T09:09:58;22.80;99.90
5027;DHT22;2532;52.480;13.354;2023-08-01T09:12:25;22.80;99.90
5027;DHT22;2532;52.480;13.354;2023-08-01T09:14:53;22.90;99.90
5027;DHT22;2532;52.480;13.354;2023-08-01T09:17:23;23.10;99.90
5027;DHT22;2532;52.480;13.354;2023-08-01T09:19:55;23.10;99.90
5027;DHT22;2532;52.480;13.354;2023-08-01T09:22:23;23.20;99.90
5027;DHT22;2532;52.480;13.354;2023-08-01T09:24:53;23.30;99.90
5027;DHT22;2532;52.480;13.354;2023-08-01T09:27:22;23.40;99.70
5027;DHT22;2532;52.480;13.354;2023-08-01T09:29:49;23.40;99.00
5027;DHT22;2532;52.480;13.354;2023-08-01T09:32:16;23.30;99.00
5027;DHT22;2532;52.480;13.354;2023-08-01T09:34:44;23.30;99.20
5027;DHT22;2532;52.480;13.354;2023-08-01T09:37:11;23.20;99.10
5027;DHT22;2532;52.480;13.354;2023-08-01T09:39:38;23.20;99.00
5027;DHT22;2532;52.480;13.354;2023-08-01T09:42:05;23.10;99.20
5027;DHT22;2532;52.480;13.354;2023-08-01T09:44:35;23.10;99.60
5027;DHT22;2532;52.480;13.354;2023-08-01T09:47:04;23.00;99.60
5027;DHT22;2532;52.480;13.354;2023-08-01T09:49:32;23.00;99.40
5027;DHT22;2532;52.480;13.354;2023-08-01T09:51:59;22.90;99.70
5027;DHT22;2532;52.480;13.354;2023-08-01T09:54:27;22.90;99.40
5027;DHT22;2532;52.480;13.354;2023-08-01T09:56:54;22.90;99.00
5027;DHT22;2532;52.480;13.354;2023-08-01T09:59:22;23.00;99.30
5027;DHT22;2532;52.480;13.354;2023-08-01T10:01:52;23.00;99.30
5027;DHT22;2532;52.480;13.354;2023-08-01T10:04:21;23.00;99.00
5027;DHT22;2532;52.480;13.354;2023-08-01T10:06:52;23.00;99.00
5027;DHT22;2532;52.480;13.354;2023-08-01T10:09:21;22.90;99.20
5027;DHT22;2532;52.480;13.354;2023-08-01T10:11:49;22.90;99.20
5027;DHT22;2532;52.480;13.354;2023-08-01T10:14:17;22.80;99.40
5027;DHT22;2532;52.480;13.354;2023-08-01T10:16:44;22.90;99.50
5027;DHT22;2532;52.480;13.354;2023-08-01T10:19:13;22.80;99.50
5027;DHT22;2532;52.480;13.354;2023-08-01T10:21:42;22.80;99.50
5027;DHT22;2532;52.480;13.354;2023-08-01T10:24:10;22.70;99.60
5027;DHT22;2532;52.480;13.354;2023-08-01T10:26:38;22.70;99.70
5027;DHT22;2532;52.480;13.354;2023-08-01T10:29:05;22.70;99.90
5027;DHT22;2532;52.480;13.354;2023-08-01T10:31:32;22.60;99.90
5027;DHT22;2532;52.480;13.354;2023-08-01T10:34:07;22.70;99.90
5027;DHT22;2532;52.480;13.354;2023-08-01T10:36:52;22.60;99.80
5027;DHT22;2532;52.480;13.354;2023-08-01T10:39:21;22.60;99.90
5027;DHT22;2532;52.480;13.354;2023-08-01T10:41:57;22.60;99.90
5027;DHT22;2532;52.480;13.354;2023-08-01T10:44:25;22.50;99.90
5027;DHT22;2532;52.480;13.354;2023-08-01T10:46:55;22.40;99.90
5027;DHT22;2532;52.480;13.354;2023-08-01T10:49:34;22.10;99.90
5027;DHT22;2532;52.480;13.354;2023-08-01T10:52:16;21.80;99.90
5027;DHT22;2532;52.480;13.354;2023-08-01T10:54:43;21.60;99.90
5027;DHT22;2532;52.480;13.354;2023-08-01T10:57:15;21.30;99.90
5027;DHT22;2532;52.480;13.354;2023-08-01T10:59:43;21.20;99.90
5027;DHT22;2532;52.480;13.354;2023-08-01T11:02:10;20.90;99.90
5027;DHT22;2532;52.480;13.354;2023-08-01T11:04:37;20.80;99.90
5027;DHT22;2532;52.480;13.354;2023-08-01T11:07:05;20.70;99.90
5027;DHT22;2532;52.480;13.354;2023-08-01T11:09:32;20.60;99.90
5027;DHT22;2532;52.480;13.354;2023-08-01T11:12:00;20.60;99.90
5027;DHT22;2532;52.480;13.354;2023-08-01T11:14:28;20.50;99.90
5027;DHT22;2532;52.480;13.354;2023-08-01T11:16:56;20.50;99.90
5027;DHT22;2532;52.480;13.354;2023-08-01T11:19:24;20.50;99.90
5027;DHT22;2532;52.480;13.354;2023-08-01T11:21:52;20.50;99.90
5027;DHT22;2532;52.480;13.354;2023-08-01T11:24:24;20.40;99.90
5027;DHT22;2532;52.480;13.354;2023-08-01T11:26:52;20.40;99.90
5027;DHT22;2532;52.480;13.354;2023-08-01T11:29:20;20.50;99.90
5027;DHT22;2532;52.480;13.354;2023-08-01T11:31:54;20.50;99.90
5027;DHT22;2532;52.480;13.354;2023-08-01T11:34:21;20.60;99.90
5027;DHT22;2532;52.480;13.354;2023-08-01T11:36:48;20.60;99.90
5027;DHT22;2532;52.480;13.354;2023-08-01T11:39:16;20.70;99.90
5027;DHT22;2532;52.480;13.354;2023-08-01T11:41:44;20.60;99.90
5027;DHT22;2532;52.480;13.354;2023-08-01T11:44:11;20.70;99.90
5027;DHT22;2532;52.480;13.354;2023-08-01T11:46:39;20.70;99.90
5027;DHT22;2532;52.480;13.354;2023-08-01T11:49:07;20.80;99.90
5027;DHT22;2532;52.480;13.354;2023-08-01T11:51:39;20.80;99.90
5027;DHT22;2532;52.480;13.354;2023-08-01T11:54:06;20.70;99.90
5027;DHT22;2532;52.480;13.354;2023-08-01T11:56:36;20.90;99.90
5027;DHT22;2532;52.480;13.354;2023-08-01T11:59:09;20.80;99.90
5027;DHT22;2532;52.480;13.354;2023-08-01T12:01:39;20.90;99.90
5027;DHT22;2532;52.480;13.354;2023-08-01T12:04:07;21.00;99.90
5027;DHT22;2532;52.480;13.354;2023-08-01T12:06:34;21.10;99.90
5027;DHT22;2532;52.480;13.354;2023-08-01T12:09:10;21.20;99.90
5027;DHT22;2532;52.480;13.354;2023-08-01T12:11:38;21.30;99.90
5027;DHT22;2532;52.480;13.354;2023-08-01T12:14:09;21.40;99.90
5027;DHT22;2532;52.480;13.354;2023-08-01T12:16:39;21.50;99.90
5027;DHT22;2532;52.480;13.354;2023-08-01T12:19:07;21.50;99.90
5027;DHT22;2532;52.480;13.354;2023-08-01T12:21:34;21.50;99.90
5027;DHT22;2532;52.480;13.354;2023-08-01T12:24:02;21.50;99.90
5027;DHT22;2532;52.480;13.354;2023-08-01T12:26:29;21.40;99.90
5027;DHT22;2532;52.480;13.354;2023-08-01T12:28:56;21.40;99.90
5027;DHT22;2532;52.480;13.354;2023-08-01T12:31:25;21.50;99.90
5027;DHT22;2532;52.480;13.354;2023-08-01T12:33:52;21.60;99.90
5027;DHT22;2532;52.480;13.354;2023-08-01T12:36:19;21.60;99.90
5027;DHT22;2532;52.480;13.354;2023-08-01T12:38:46;21.70;99.90
5027;DHT22;2532;52.480;13.354;2023-08-01T12:41:13;21.70;99.90
5027;DHT22;2532;52.480;13.354;2023-08-01T12:43:40;21.80;99.90
5027;DHT22;2532;52.480;13.354;2023-08-01T12:46:07;21.80;99.90
5027;DHT22;2532;52.480;13.354;2023-08-01T12:48:36;21.80;99.90
5027;DHT22;2532;52.480;13.354;2023-08-01T12:51:03;21.90;99.90
5027;DHT22;2532;52.480;13.354;2023-08-01T12:53:30;21.90;99.90
5027;DHT22;2532;52.480;13.354;2023-08-01T12:55:57;21.90;99.90
5027;DHT22;2532;52.480;13.354;2023-08-01T12:58:23;21.90;99.90
5027;DHT22;2532;52.480;13.354;2023-08-01T13:00:50;22.00;99.80
5027;DHT22;2532;52.480;13.354;2023-08-01T13:03:17;21.90;99.80
5027;DHT22;2532;52.480;13.354;2023-08-01T13:05:46;21.90;99.90
5027;DHT22;2532;52.480;13.354;2023-08-01T13:08:13;22.00;99.90
5027;DHT22;2532;52.480;13.354;2023-08-01T13:10:40;22.00;99.90
5027;DHT22;2532;52.480;13.354;2023-08-01T13:13:08;22.10;99.90
5027;DHT22;2532;52.480;13.354;2023-08-01T13:15:34;22.10;99.90
5027;DHT22;2532;52.480;13.354;2023-08-01T13:18:01;22.20;99.90
5027;DHT22;2532;52.480;13.354;2023-08-01T13:20:29;22.30;99.90
5027;DHT22;2532;52.480;13.354;2023-08-01T13:22:57;22.40;99.90
5027;DHT22;2532;52.480;13.354;2023-08-01T13:25:24;22.50;99.90
5027;DHT22;2532;52.480;13.354;2023-08-01T13:27:51;22.70;99.50
5027;DHT22;2532;52.480;13.354;2023-08-01T13:30:18;22.80;99.10
5027;DHT22;2532;52.480;13.354;2023-08-01T13:32:46;22.90;99.00
5027;DHT22;2532;52.480;13.354;2023-08-01T13:35:13;22.90;99.20
5027;DHT22;2532;52.480;13.354;2023-08-01T13:37:40;23.10;99.40
5027;DHT22;2532;52.480;13.354;2023-08-01T13:40:09;23.20;99.00
5027;DHT22;2532;52.480;13.354;2023-08-01T13:42:37;23.40;98.50
5027;DHT22;2532;52.480;13.354;2023-08-01T13:45:05;23.50;98.00
5027;DHT22;2532;52.480;13.354;2023-08-01T13:47:32;23.60;97.90
5027;DHT22;2532;52.480;13.354;2023-08-01T13:49:59;23.60;98.10
5027;DHT22;2532;52.480;13.354;2023-08-01T13:52:26;23.70;97.90
5027;DHT22;2532;52.480;13.354;2023-08-01T13:54:53;23.80;97.90
5027;DHT22;2532;52.480;13.354;2023-08-01T13:57:21;23.90;97.40
5027;DHT22;2532;52.480;13.354;2023-08-01T13:59:49;24.10;97.40
5027;DHT22;2532;52.480;13.354;2023-08-01T14:02:16;24.30;96.60
5027;DHT22;2532;52.480;13.354;2023-08-01T14:04:43;24.40;96.60
5027;DHT22;2532;52.480;13.354;2023-08-01T14:07:10;24.40;96.50
5027;DHT22;2532;52.480;13.354;2023-08-01T14:09:37;24.60;96.70
5027;DHT22;2532;52.480;13.354;2023-08-01T14:12:05;24.80;96.50
5027;DHT22;2532;52.480;13.354;2023-08-01T14:14:33;25.10;95.60
5027;DHT22;2532;52.480;13.354;2023-08-01T14:17:00;25.30;95.00
5027;DHT22;2532;52.480;13.354;2023-08-01T14:19:27;25.40;94.30
5027;DHT22;2532;52.480;13.354;2023-08-01T14:21:55;25.40;94.00
5027;DHT22;2532;52.480;13.354;2023-08-01T14:24:23;25.20;94.00
5027;DHT22;2532;52.480;13.354;2023-08-01T14:26:50;25.10;94.50
5027;DHT22;2532;52.480;13.354;2023-08-01T14:29:17;25.20;94.40
5027;DHT22;2532;52.480;13.354;2023-08-01T14:31:49;25.30;93.60
5027;DHT22;2532;52.480;13.354;2023-08-01T14:34:16;25.40;93.50
5027;DHT22;2532;52.480;13.354;2023-08-01T14:36:43;25.40;93.50
5027;DHT22;2532;52.480;13.354;2023-08-01T14:39:10;25.50;93.40
5027;DHT22;2532;52.480;13.354;2023-08-01T14:41:37;25.70;93.70
5027;DHT22;2532;52.480;13.354;2023-08-01T14:44:04;25.90;93.30
5027;DHT22;2532;52.480;13.354;2023-08-01T14:46:31;26.10;93.50
5027;DHT22;2532;52.480;13.354;2023-08-01T14:48:59;26.30;93.00
5027;DHT22;2532;52.480;13.354;2023-08-01T14:51:26;26.50;92.60
5027;DHT22;2532;52.480;13.354;2023-08-01T14:53:53;26.60;91.80
5027;DHT22;2532;52.480;13.354;2023-08-01T14:56:20;26.60;91.40
5027;DHT22;2532;52.480;13.354;2023-08-01T14:58:47;26.40;90.90
5027;DHT22;2532;52.480;13.354;2023-08-01T15:01:14;26.20;90.70
5027;DHT22;2532;52.480;13.354;2023-08-01T15:03:42;26.00;90.80
5027;DHT22;2532;52.480;13.354;2023-08-01T15:06:11;25.70;91.10
5027;DHT22;2532;52.480;13.354;2023-08-01T15:08:39;25.50;91.50
5027;DHT22;2532;52.480;13.354;2023-08-01T15:11:07;25.10;92.40
5027;DHT22;2532;52.480;13.354;2023-08-01T15:13:34;24.90;92.80
5027;DHT22;2532;52.480;13.354;2023-08-01T15:16:02;24.60;93.50
5027;DHT22;2532;52.480;13.354;2023-08-01T15:18:29;24.10;94.00
5027;DHT22;2532;52.480;13.354;2023-08-01T15:20:56;23.40;95.80
5027;DHT22;2532;52.480;13.354;2023-08-01T15:23:24;22.80;97.50
5027;DHT22;2532;52.480;13.354;2023-08-01T15:25:52;22.10;99.10
5027;DHT22;2532;52.480;13.354;2023-08-01T15:28:19;21.60;99.90
5027;DHT22;2532;52.480;13.354;2023-08-01T15:30:46;21.10;99.90
5027;DHT22;2532;52.480;13.354;2023-08-01T15:33:14;20.80;99.90
5027;DHT22;2532;52.480;13.354;2023-08-01T15:35:42;20.50;99.90
5027;DHT22;2532;52.480;13.354;2023-08-01T15:38:09;20.30;99.90
5027;DHT22;2532;52.480;13.354;2023-08-01T15:40:38;20.10;99.90
5027;DHT22;2532;52.480;13.354;2023-08-01T15:43:05;20.10;99.90
5027;DHT22;2532;52.480;13.354;2023-08-01T15:45:32;20.00;99.90
5027;DHT22;2532;52.480;13.354;2023-08-01T15:47:59;20.00;99.90
5027;DHT22;2532;52.480;13.354;2023-08-01T15:50:26;20.00;99.90
5027;DHT22;2532;52.480;13.354;2023-08-01T15:52:53;20.00;99.90
5027;DHT22;2532;52.480;13.354;2023-08-01T15:55:20;20.00;99.90
5027;DHT22;2532;52.480;13.354;2023-08-01T15:57:48;20.10;99.90
5027;DHT22;2532;52.480;13.354;2023-08-01T16:00:15;20.30;99.90
5027;DHT22;2532;52.480;13.354;2023-08-01T16:02:42;20.60;99.90
5027;DHT22;2532;52.480;13.354;2023-08-01T16:05:09;20.90;99.90
5027;DHT22;2532;52.480;13.354;2023-08-01T16:07:37;21.10;99.90
5027;DHT22;2532;52.480;13.354;2023-08-01T16:10:04;21.10;99.90
5027;DHT22;2532;52.480;13.354;2023-08-01T16:12:31;21.10;99.90
5027;DHT22;2532;52.480;13.354;2023-08-01T16:14:59;21.20;99.90
5027;DHT22;2532;52.480;13.354;2023-08-01T16:17:26;21.10;99.90
5027;DHT22;2532;52.480;13.354;2023-08-01T16:19:53;21.30;99.90
5027;DHT22;2532;52.480;13.354;2023-08-01T16:22:21;21.40;99.90
5027;DHT22;2532;52.480;13.354;2023-08-01T16:24:48;21.80;99.90
5027;DHT22;2532;52.480;13.354;2023-08-01T16:27:15;22.10;99.90
5027;DHT22;2532;52.480;13.354;2023-08-01T16:29:42;22.60;99.90
5027;DHT22;2532;52.480;13.354;2023-08-01T16:32:10;23.10;99.90
5027;DHT22;2532;52.480;13.354;2023-08-01T16:34:37;23.50;99.10
5027;DHT22;2532;52.480;13.354;2023-08-01T16:37:04;23.90;98.10
5027;DHT22;2532;52.480;13.354;2023-08-01T16:39:31;24.20;97.50
5027;DHT22;2532;52.480;13.354;2023-08-01T16:41:58;24.40;96.80
5027;DHT22;2532;52.480;13.354;2023-08-01T16:44:25;24.50;96.60
5027;DHT22;2532;52.480;13.354;2023-08-01T16:46:52;24.30;96.20
5027;DHT22;2532;52.480;13.354;2023-08-01T16:49:20;24.00;96.30
5027;DHT22;2532;52.480;13.354;2023-08-01T16:51:47;23.70;96.80
5027;DHT22;2532;52.480;13.354;2023-08-01T16:54:14;23.40;97.40
5027;DHT22;2532;52.480;13.354;2023-08-01T16:56:40;23.20;98.10
5027;DHT22;2532;52.480;13.354;2023-08-01T16:59:07;23.20;99.50
5027;DHT22;2532;52.480;13.354;2023-08-01T17:01:34;23.40;99.40
5027;DHT22;2532;52.480;13.354;2023-08-01T17:04:01;23.70;99.20
5027;DHT22;2532;52.480;13.354;2023-08-01T17:06:30;24.10;98.30
5027;DHT22;2532;52.480;13.354;2023-08-01T17:08:57;24.70;97.70
5027;DHT22;2532;52.480;13.354;2023-08-01T17:11:24;25.20;97.20
5027;DHT22;2532;52.480;13.354;2023-08-01T17:13:51;25.70;96.40
5027;DHT22;2532;52.480;13.354;2023-08-01T17:16:18;26.20;95.60
5027;DHT22;2532;52.480;13.354;2023-08-01T17:18:44;26.50;94.50
5027;DHT22;2532;52.480;13.354;2023-08-01T17:21:11;26.50;93.50
5027;DHT22;2532;52.480;13.354;2023-08-01T17:23:39;26.20;93.40
5027;DHT22;2532;52.480;13.354;2023-08-01T17:26:06;25.70;93.90
5027;DHT22;2532;52.480;13.354;2023-08-01T17:28:33;25.30;94.30
5027;DHT22;2532;52.480;13.354;2023-08-01T17:31:03;24.80;94.90
5027;DHT22;2532;52.480;13.354;2023-08-01T17:33:30;24.30;95.30
5027;DHT22;2532;52.480;13.354;2023-08-01T17:35:57;24.00;95.80
5027;DHT22;2532;52.480;13.354;2023-08-01T17:38:24;23.70;96.20
5027;DHT22;2532;52.480;13.354;2023-08-01T17:40:52;23.40;96.50
5027;DHT22;2532;52.480;13.354;2023-08-01T17:43:19;23.20;96.80
5027;DHT22;2532;52.480;13.354;2023-08-01T17:45:46;23.40;97.10
5027;DHT22;2532;52.480;13.354;2023-08-01T17:48:13;23.80;96.60
5027;DHT22;2532;52.480;13.354;2023-08-01T17:50:41;24.30;96.00
5027;DHT22;2532;52.480;13.354;2023-08-01T17:53:09;24.90;95.60
5027;DHT22;2532;52.480;13.354;2023-08-01T17:55:36;25.10;94.30
5027;DHT22;2532;52.480;13.354;2023-08-01T17:58:04;25.20;94.20
5027;DHT22;2532;52.480;13.354;2023-08-01T18:00:31;25.30;93.70
5027;DHT22;2532;52.480;13.354;2023-08-01T18:02:58;25.10;93.60
5027;DHT22;2532;52.480;13.354;2023-08-01T18:05:25;24.70;93.70
5027;DHT22;2532;52.480;13.354;2023-08-01T18:07:52;24.50;93.80
5027;DHT22;2532;52.480;13.354;2023-08-01T18:10:19;24.10;94.00
5027;DHT22;2532;52.480;13.354;2023-08-01T18:12:46;23.80;94.30
5027;DHT22;2532;52.480;13.354;2023-08-01T18:15:15;23.40;94.80
5027;DHT22;2532;52.480;13.354;2023-08-01T18:17:42;23.10;95.30
5027;DHT22;2532;52.480;13.354;2023-08-01T18:20:10;22.70;95.40
5027;DHT22;2532;52.480;13.354;2023-08-01T18:22:37;22.40;95.80
5027;DHT22;2532;52.480;13.354;2023-08-01T18:25:04;22.20;96.30
5027;DHT22;2532;52.480;13.354;2023-08-01T18:27:31;22.00;96.50
5027;DHT22;2532;52.480;13.354;2023-08-01T18:29:58;21.80;96.60
5027;DHT22;2532;52.480;13.354;2023-08-01T18:32:28;21.60;97.10
5027;DHT22;2532;52.480;13.354;2023-08-01T18:34:54;21.50;97.20
5027;DHT22;2532;52.480;13.354;2023-08-01T18:37:24;21.40;97.40
5027;DHT22;2532;52.480;13.354;2023-08-01T18:39:53;21.30;97.60
5027;DHT22;2532;52.480;13.354;2023-08-01T18:42:20;21.20;97.70
5027;DHT22;2532;52.480;13.354;2023-08-01T18:44:47;21.10;98.00
5027;DHT22;2532;52.480;13.354;2023-08-01T18:47:17;21.00;98.00
5027;DHT22;2532;52.480;13.354;2023-08-01T18:49:46;20.90;98.20
5027;DHT22;2532;52.480;13.354;2023-08-01T18:52:15;20.90;98.30
5027;DHT22;2532;52.480;13.354;2023-08-01T18:54:42;20.90;98.50
5027;DHT22;2532;52.480;13.354;2023-08-01T18:57:09;20.80;98.50
5027;DHT22;2532;52.480;13.354;2023-08-01T18:59:36;20.80;98.70
5027;DHT22;2532;52.480;13.354;2023-08-01T19:02:05;20.70;98.70
5027;DHT22;2532;52.480;13.354;2023-08-01T19:04:31;20.60;98.80
5027;DHT22;2532;52.480;13.354;2023-08-01T19:07:00;20.60;98.90
5027;DHT22;2532;52.480;13.354;2023-08-01T19:09:27;20.60;99.00
5027;DHT22;2532;52.480;13.354;2023-08-01T19:11:54;20.50;99.10
5027;DHT22;2532;52.480;13.354;2023-08-01T19:14:21;20.50;99.10
5027;DHT22;2532;52.480;13.354;2023-08-01T19:16:48;20.50;99.20
5027;DHT22;2532;52.480;13.354;2023-08-01T19:19:15;20.50;99.30
5027;DHT22;2532;52.480;13.354;2023-08-01T19:21:41;20.50;99.30
5027;DHT22;2532;52.480;13.354;2023-08-01T19:24:10;20.40;99.30
5027;DHT22;2532;52.480;13.354;2023-08-01T19:26:37;20.40;99.30
5027;DHT22;2532;52.480;13.354;2023-08-01T19:29:04;20.40;99.30
5027;DHT22;2532;52.480;13.354;2023-08-01T19:31:30;20.40;99.40
5027;DHT22;2532;52.480;13.354;2023-08-01T19:33:57;20.40;99.50
5027;DHT22;2532;52.480;13.354;2023-08-01T19:36:25;20.40;99.50
5027;DHT22;2532;52.480;13.354;2023-08-01T19:38:52;20.40;99.70
5027;DHT22;2532;52.480;13.354;2023-08-01T19:41:20;20.40;99.70
5027;DHT22;2532;52.480;13.354;2023-08-01T19:43:47;20.40;99.60
5027;DHT22;2532;52.480;13.354;2023-08-01T19:46:15;20.30;99.70
5027;DHT22;2532;52.480;13.354;2023-08-01T19:48:44;20.30;99.60
5027;DHT22;2532;52.480;13.354;2023-08-01T19:51:12;20.30;99.70